KELY/ELY METAR and TAF weather

Enter ICAO airport designator
Station Type Date Time Source
KELY METAR 2018/10/19 14:53 UTC NOAA

KELY 191453Z AUTO 16008KT 10SM CLR M02/M06 A3045 RMK AO2 SLP302 T10221056 53014


Station Type Date Time Source
KELY Decoded METAR 2018/10/19 14:53 UTC NOAA

ELY AIRPORT (YELLAND FIELD), NV, United States (KELY) 39-18N 114-51W 1906M
Oct 19, 2018 - 10:53 AM EDT / 2018.10.19 1453 UTC
Wind: from the SSE (160 degrees) at 9 MPH (8 KT):0
Visibility: 10 mile(s):0
Sky conditions: clear
Temperature: 28.0 F (-2.2 C)
Windchill: 19 F (-7 C):1
Dew Point: 21.9 F (-5.6 C)
Relative Humidity: 77%
Pressure (altimeter): 30.45 in. Hg (1031 hPa)
Pressure tendency: 0.04 inches (1.4 hPa) higher than three hours ago
ob: KELY 191453Z AUTO 16008KT 10SM CLR M02/M06 A3045 RMK AO2 SLP302 T10221056 53014
cycle: 15

Station Type Date Time Source
KELY TAF 2018/10/19 12:22 UTC NOAA

TAF KELY 191120Z 1912/2012 17010KT P6SM SKC
FM192000 02010KT P6SM SKC
FM200300 17008KT P6SM SKC


Example: see airport list